Time;durP1;ratioP1;P1;durP2;ratioP2;P2;SDS_P1;SDS_P2;PMS_P1;PMS_P2;Temp;Humidity;BMP_temperature;BMP_pressure;BME280_temperature;BME280_humidity;BME280_pressure;Samples;Min_cycle;Max_cycle;Signal;HPM_P1;HPM_P2
2019/04/04 00:00:07;;;;;;;8.8;7.2;;;;;;;7.19;73.51563;921.0416;;;;
2019/04/04 00:02:32;;;;;;;8.1;6.6;;;;;;;7.16;73.2959;920.9983;;;;
2019/04/04 00:04:57;;;;;;;8;6.6;;;;;;;7.13;73.11035;920.913;;;;
2019/04/04 00:07:22;;;;;;;10.2;7;;;;;;;7.1;73.13672;920.8286;;;;
2019/04/04 00:09:47;;;;;;;7.9;6.6;;;;;;;7.16;72.88867;920.7576;;;;
2019/04/04 00:12:13;;;;;;;6.7;6;;;;;;;7.22;72.08203;920.7347;;;;
2019/04/04 00:14:38;;;;;;;9.3;6.4;;;;;;;7.12;72.6084;920.8513;;;;
2019/04/04 00:17:03;;;;;;;7.1;6.4;;;;;;;7.1;72.33203;920.7905;;;;
2019/04/04 00:19:28;;;;;;;7.7;6.2;;;;;;;7.14;72.26074;920.731;;;;
2019/04/04 00:21:53;;;;;;;6.5;5.8;;;;;;;7.13;72.31738;920.723;;;;
2019/04/04 00:24:18;;;;;;;6.3;5.7;;;;;;;7.18;71.40723;920.726;;;;
2019/04/04 00:26:43;;;;;;;6.4;5.6;;;;;;;7.37;71.08789;920.7645;;;;
2019/04/04 00:29:08;;;;;;;6.6;6;;;;;;;7.33;71.35156;920.7734;;;;
2019/04/04 00:31:33;;;;;;;6.7;6.1;;;;;;;7.03;72.48047;920.6841;;;;
2019/04/04 00:34:00;;;;;;;7.6;5.9;;;;;;;6.99;72.21387;920.5449;;;;
2019/04/04 00:36:26;;;;;;;6.8;6.1;;;;;;;7.04;71.73438;920.5226;;;;
2019/04/04 00:38:53;;;;;;;7.4;6.3;;;;;;;6.94;72.1709;920.5031;;;;
2019/04/04 00:41:17;;;;;;;8;6.2;;;;;;;7.14;71.25293;920.3978;;;;
2019/04/04 00:43:42;;;;;;;7;6.4;;;;;;;6.88;72.52246;920.4514;;;;
2019/04/04 00:46:07;;;;;;;7.6;6.9;;;;;;;6.83;72.5498;920.4097;;;;
2019/04/04 00:48:32;;;;;;;7.3;6.6;;;;;;;7.1;71.51855;920.4478;;;;
2019/04/04 00:50:57;;;;;;;7;6.3;;;;;;;7.04;71.30371;920.4467;;;;
2019/04/04 00:53:23;;;;;;;6.7;6.1;;;;;;;6.78;71.99609;920.4745;;;;
2019/04/04 00:55:48;;;;;;;6.9;6.2;;;;;;;6.97;71.64258;920.3614;;;;
2019/04/04 00:58:14;;;;;;;6.8;6;;;;;;;7.13;70.53613;920.306;;;;
2019/04/04 01:00:47;;;;;;;7.2;6.5;;;;;;;7.12;69.68652;920.3021;;;;
2019/04/04 01:03:24;;;;;;;6.8;6.2;;;;;;;7.2;69.29004;920.2605;;;;
2019/04/04 01:05:56;;;;;;;7.1;6.2;;;;;;;7.09;69.47656;920.3063;;;;
2019/04/04 01:08:22;;;;;;;7.5;6.2;;;;;;;7.15;69.12402;920.2908;;;;
2019/04/04 01:10:51;;;;;;;6.8;6.1;;;;;;;7.01;69.50977;920.1589;;;;
2019/04/04 01:13:16;;;;;;;7.2;6.5;;;;;;;7.13;69.28027;920.048;;;;
2019/04/04 01:15:41;;;;;;;7.5;6.8;;;;;;;6.97;70.05762;920.1375;;;;
2019/04/04 01:18:06;;;;;;;7.2;6.5;;;;;;;7.2;69.22363;920.0316;;;;
2019/04/04 01:20:31;;;;;;;7.4;6.7;;;;;;;7.15;69.25977;919.9363;;;;
2019/04/04 01:22:57;;;;;;;8.3;7.5;;;;;;;7.08;69.45215;919.9906;;;;
2019/04/04 01:25:24;;;;;;;8.2;7.1;;;;;;;7.09;69.70313;919.9645;;;;
2019/04/04 01:27:49;;;;;;;7.8;7.1;;;;;;;6.88;71.18652;919.9704;;;;
2019/04/04 01:30:18;;;;;;;8.5;7.6;;;;;;;6.78;70.93359;919.8964;;;;
2019/04/04 01:32:46;;;;;;;8.4;7.6;;;;;;;6.89;70.36328;919.8089;;;;
2019/04/04 01:35:09;;;;;;;7.9;7.1;;;;;;;7.07;70.09668;919.8697;;;;
2019/04/04 01:37:34;;;;;;;8.8;7.9;;;;;;;7.07;70.1084;919.8483;;;;
2019/04/04 01:39:59;;;;;;;8.8;7.9;;;;;;;7.01;70.3252;919.8551;;;;
2019/04/04 01:42:25;;;;;;;8.2;7.4;;;;;;;6.93;70.8916;919.7659;;;;
2019/04/04 01:44:50;;;;;;;8.7;7.8;;;;;;;6.75;71.65234;919.8784;;;;
2019/04/04 01:47:18;;;;;;;8.6;7.8;;;;;;;6.82;70.95117;919.7065;;;;
2019/04/04 01:49:40;;;;;;;8.6;7.8;;;;;;;6.94;70.38184;919.7572;;;;
2019/04/04 01:52:05;;;;;;;9.3;8.2;;;;;;;7.26;68.82422;919.688;;;;
2019/04/04 01:54:37;;;;;;;8.6;7.8;;;;;;;7.15;69.25977;919.5856;;;;
2019/04/04 01:57:02;;;;;;;9.5;8.1;;;;;;;6.95;70.7793;919.6756;;;;
2019/04/04 01:59:30;;;;;;;8.7;7.9;;;;;;;7.02;70.8252;919.533;;;;
2019/04/04 02:01:55;;;;;;;9.2;8.3;;;;;;;6.79;71.03516;919.5578;;;;
2019/04/04 02:04:21;;;;;;;8.4;7.6;;;;;;;6.63;71.82324;919.5676;;;;
2019/04/04 02:06:46;;;;;;;9.4;8.4;;;;;;;6.54;72.27344;919.4539;;;;
2019/04/04 02:09:11;;;;;;;9.4;8.3;;;;;;;6.79;71.54492;919.4526;;;;
2019/04/04 02:11:36;;;;;;;10;8.8;;;;;;;6.65;72.12305;919.3705;;;;
2019/04/04 02:14:02;;;;;;;8.3;7.5;;;;;;;6.83;70.78223;919.3641;;;;
2019/04/04 02:16:39;;;;;;;8.3;7.5;;;;;;;6.84;70.73926;919.2445;;;;
2019/04/04 02:19:04;;;;;;;8.8;7.8;;;;;;;6.55;71.5166;919.2175;;;;
2019/04/04 02:21:29;;;;;;;8.8;7.8;;;;;;;6.46;71.73926;919.1849;;;;
2019/04/04 02:23:57;;;;;;;8.6;7.8;;;;;;;6.35;72.17383;919.1205;;;;
2019/04/04 02:26:23;;;;;;;8.8;7.7;;;;;;;6.4;71.59277;918.8965;;;;
2019/04/04 02:28:48;;;;;;;9.3;8.1;;;;;;;6.08;72.79297;919.0577;;;;
2019/04/04 02:31:13;;;;;;;9.4;8.5;;;;;;;6.38;71.75977;918.9867;;;;
2019/04/04 02:33:38;;;;;;;9;8.1;;;;;;;6.58;70.75391;918.8805;;;;
2019/04/04 02:36:04;;;;;;;8.5;7.7;;;;;;;6.46;70.66504;918.8395;;;;
2019/04/04 02:38:30;;;;;;;8.7;7.9;;;;;;;6.26;71.81934;918.8903;;;;
2019/04/04 02:40:55;;;;;;;8.5;7.7;;;;;;;6.15;72.26465;918.8353;;;;
2019/04/04 02:43:20;;;;;;;8.3;7.5;;;;;;;6.34;71.40137;918.7515;;;;
2019/04/04 02:45:46;;;;;;;8.8;8;;;;;;;6.36;71.56348;918.5972;;;;
2019/04/04 02:48:11;;;;;;;9.3;8.2;;;;;;;6.18;71.7041;918.6124;;;;
2019/04/04 02:50:36;;;;;;;10.1;9;;;;;;;6.27;71.20996;918.7211;;;;
2019/04/04 02:53:01;;;;;;;9.4;8.5;;;;;;;6.11;71.84961;918.6199;;;;
2019/04/04 02:55:28;;;;;;;9.8;8.8;;;;;;;6.05;72.26855;918.4796;;;;
2019/04/04 02:57:53;;;;;;;9.1;8.2;;;;;;;6.04;72.65332;918.2229;;;;
2019/04/04 03:00:18;;;;;;;9.1;8.2;;;;;;;6.14;72.14844;918.242;;;;
2019/04/04 03:02:43;;;;;;;9;8.1;;;;;;;6.02;72.83105;918.2507;;;;
2019/04/04 03:05:09;;;;;;;9.3;8.3;;;;;;;6.26;72.06641;918.2415;;;;
2019/04/04 03:07:34;;;;;;;9.5;8.6;;;;;;;6.43;71.42773;918.1054;;;;
2019/04/04 03:09:59;;;;;;;10;9;;;;;;;6.43;71.18066;918.054;;;;
2019/04/04 03:12:24;;;;;;;9.8;8.9;;;;;;;6.33;71.59277;917.9597;;;;
2019/04/04 03:14:53;;;;;;;10.6;9.5;;;;;;;6.31;71.96289;918.0254;;;;
2019/04/04 03:17:18;;;;;;;9.2;8.4;;;;;;;6.39;71.40137;917.9567;;;;
2019/04/04 03:19:43;;;;;;;10.3;9.2;;;;;;;6.42;71.50684;917.8194;;;;
2019/04/04 03:22:19;;;;;;;11.4;10.2;;;;;;;6.36;71.81152;917.8259;;;;
2019/04/04 03:24:47;;;;;;;11;9.9;;;;;;;6.23;72.26563;917.8315;;;;
2019/04/04 03:27:13;;;;;;;11.8;10.6;;;;;;;6.24;72.46094;917.8727;;;;
2019/04/04 03:29:38;;;;;;;11.5;10.3;;;;;;;6.31;72.41504;917.6967;;;;
2019/04/04 03:32:03;;;;;;;12.1;11;;;;;;;6.6;71.41113;917.6225;;;;
2019/04/04 03:34:28;;;;;;;11.6;10.5;;;;;;;6.52;71.71582;917.4833;;;;
2019/04/04 03:36:55;;;;;;;12.6;11.4;;;;;;;6.32;72.17871;917.3456;;;;
2019/04/04 03:39:20;;;;;;;12.8;11.6;;;;;;;6.14;73.25586;917.2522;;;;
2019/04/04 03:41:46;;;;;;;13.9;11.4;;;;;;;6.27;72.58984;917.3303;;;;
2019/04/04 03:44:12;;;;;;;12.1;11;;;;;;;6.09;72.94336;917.4342;;;;
2019/04/04 03:46:37;;;;;;;13.3;11.9;;;;;;;6.13;73.31055;917.4086;;;;
2019/04/04 03:49:02;;;;;;;12.5;11.3;;;;;;;5.98;73.17285;917.3787;;;;
2019/04/04 03:51:27;;;;;;;12.5;11.3;;;;;;;6.47;71.67285;917.4514;;;;
2019/04/04 03:53:56;;;;;;;11.8;10.2;;;;;;;6.73;70.00781;917.2364;;;;
2019/04/04 03:56:20;;;;;;;11.4;10.2;;;;;;;6.81;69.33105;917.1725;;;;
2019/04/04 03:58:42;;;;;;;11.1;9.9;;;;;;;6.35;70.7373;917.2576;;;;
2019/04/04 04:02:33;;;;;;;9.7;8.7;;;;;;;6.5;69.8125;917.1989;;;;
2019/04/04 04:04:57;;;;;;;9.4;8.5;;;;;;;6.26;71.03809;917.2679;;;;
2019/04/04 04:07:22;;;;;;;11.1;8.8;;;;;;;6.14;71.5498;917.1763;;;;
2019/04/04 04:09:47;;;;;;;10.7;9.4;;;;;;;6.2;71.55957;917.0178;;;;
2019/04/04 04:12:15;;;;;;;9.8;8.8;;;;;;;6.76;69.31055;916.976;;;;
2019/04/04 04:14:40;;;;;;;9.6;7.8;;;;;;;6.56;69.57324;916.8552;;;;
2019/04/04 04:17:06;;;;;;;9;8;;;;;;;6.36;69.70996;916.8434;;;;
2019/04/04 04:19:31;;;;;;;8.7;7.9;;;;;;;6.37;69.89258;916.8592;;;;
2019/04/04 04:21:56;;;;;;;9;8.1;;;;;;;6.62;68.61035;916.9449;;;;
2019/04/04 04:24:21;;;;;;;9.2;8.3;;;;;;;6.18;70.43848;916.8425;;;;
2019/04/04 04:26:46;;;;;;;9.1;8.2;;;;;;;6.05;70.83496;916.7725;;;;
2019/04/04 04:29:11;;;;;;;8.8;8;;;;;;;6.02;70.63867;916.7215;;;;
2019/04/04 04:31:36;;;;;;;8.9;8;;;;;;;6.05;70.5625;916.6849;;;;
2019/04/04 04:34:04;;;;;;;9.9;8.9;;;;;;;5.99;70.8125;916.6915;;;;
2019/04/04 04:36:27;;;;;;;12.6;11.1;;;;;;;5.87;71.4834;916.6321;;;;
2019/04/04 04:38:54;;;;;;;11.8;10.2;;;;;;;5.29;74.04883;916.5313;;;;
2019/04/04 04:41:20;;;;;;;11;9.6;;;;;;;5.56;73.17969;916.4476;;;;
2019/04/04 04:43:45;;;;;;;12.6;9.6;;;;;;;5.64;72.78711;916.43;;;;
2019/04/04 04:46:10;;;;;;;13.8;10.4;;;;;;;5.74;73.04102;916.3984;;;;
2019/04/04 04:48:35;;;;;;;11.6;10.4;;;;;;;5.3;74.18555;916.2693;;;;
2019/04/04 04:51:00;;;;;;;14.9;10.9;;;;;;;5.24;74.94141;916.1372;;;;
2019/04/04 04:53:25;;;;;;;11.9;10.7;;;;;;;5.21;74.77734;916.1997;;;;
2019/04/04 04:55:51;;;;;;;13.3;10.2;;;;;;;5.33;74.5625;916.1397;;;;
2019/04/04 04:58:16;;;;;;;16.3;10.2;;;;;;;5.79;72.68945;916.1825;;;;
2019/04/04 05:00:41;;;;;;;14.8;10.5;;;;;;;5.68;73.10938;916.0981;;;;
2019/04/04 05:03:06;;;;;;;16.5;11;;;;;;;5.55;73.83301;916.0358;;;;
2019/04/04 05:05:34;;;;;;;16.3;11.4;;;;;;;5.46;74.82324;916.0751;;;;
2019/04/04 05:08:02;;;;;;;13.1;11.6;;;;;;;5.36;75.55957;916.1498;;;;
2019/04/04 05:10:27;;;;;;;16.2;13.3;;;;;;;5.38;75.19238;916.025;;;;
2019/04/04 05:12:53;;;;;;;13.8;12.4;;;;;;;5.51;74.71777;916.0535;;;;
2019/04/04 05:15:18;;;;;;;14.2;12.8;;;;;;;5.82;73.36035;916.0822;;;;
2019/04/04 05:17:43;;;;;;;14.5;12.4;;;;;;;5.95;72.69238;915.9415;;;;
2019/04/04 05:20:11;;;;;;;16.2;14.1;;;;;;;6;72.3291;916.0366;;;;
2019/04/04 05:22:36;;;;;;;17.6;14.8;;;;;;;6.08;72.72656;916.0486;;;;
2019/04/04 05:25:01;;;;;;;15.8;13.9;;;;;;;6.07;72.23926;916.063;;;;
2019/04/04 05:27:27;;;;;;;16.7;13.9;;;;;;;5.67;73.59375;915.8929;;;;
2019/04/04 05:29:53;;;;;;;16.1;14.4;;;;;;;5.74;73.70898;915.8212;;;;
2019/04/04 05:32:18;;;;;;;15.7;14;;;;;;;5.46;74.58398;915.9789;;;;
2019/04/04 05:34:43;;;;;;;16.4;14.7;;;;;;;5.6;74.35938;915.8373;;;;
2019/04/04 05:37:08;;;;;;;16.3;14.6;;;;;;;5.78;73.4873;915.8636;;;;
2019/04/04 05:39:34;;;;;;;19.6;17.1;;;;;;;5.58;74.92285;915.7758;;;;
2019/04/04 05:42:00;;;;;;;16.6;14.9;;;;;;;5.77;73.71191;915.8858;;;;
2019/04/04 05:44:25;;;;;;;16.5;14.8;;;;;;;5.97;73.02441;915.7794;;;;
2019/04/04 05:46:50;;;;;;;17.5;14.7;;;;;;;5.89;72.97656;915.573;;;;
2019/04/04 05:49:18;;;;;;;17.4;14.4;;;;;;;5.83;73.51953;915.5081;;;;
2019/04/04 05:51:40;;;;;;;17.1;14.6;;;;;;;6.01;73.04102;915.2823;;;;
2019/04/04 05:54:06;;;;;;;16.1;14.4;;;;;;;6.03;72.27734;915.3976;;;;
2019/04/04 05:56:32;;;;;;;16.1;14.5;;;;;;;6.09;72.08398;915.3021;;;;
2019/04/04 05:59:04;;;;;;;16;14.4;;;;;;;6.03;72.63867;915.3937;;;;
2019/04/04 06:01:29;;;;;;;16.7;14.9;;;;;;;5.94;73.57324;915.365;;;;
2019/04/04 06:03:56;;;;;;;19.2;16.4;;;;;;;5.72;74.41602;915.1797;;;;
2019/04/04 06:06:22;;;;;;;18.7;16;;;;;;;5.95;73.15527;915.2505;;;;
2019/04/04 06:08:54;;;;;;;15.1;13.6;;;;;;;6.48;70.99609;915.1351;;;;
2019/04/04 06:11:25;;;;;;;18.9;14.6;;;;;;;6.17;71.81543;914.9054;;;;
2019/04/04 06:13:58;;;;;;;16;14.4;;;;;;;6.32;71.42285;915.1622;;;;
2019/04/04 06:16:23;;;;;;;15.3;13.8;;;;;;;6.37;71.20313;915.1569;;;;
2019/04/04 06:18:48;;;;;;;16.4;14.5;;;;;;;6.53;70.74512;915.1678;;;;
2019/04/04 06:21:15;;;;;;;16.8;15.1;;;;;;;6.08;72.3877;914.949;;;;
2019/04/04 06:23:40;;;;;;;17.4;15.5;;;;;;;6.05;72.57422;915.1761;;;;
2019/04/04 06:26:05;;;;;;;17.3;15.5;;;;;;;6.06;72.9502;914.838;;;;
2019/04/04 06:28:30;;;;;;;16.8;15;;;;;;;6.31;71.90625;914.9871;;;;
2019/04/04 06:30:55;;;;;;;17;15.2;;;;;;;6.62;70.69141;914.8323;;;;
2019/04/04 06:33:21;;;;;;;16.7;14.4;;;;;;;6.88;70.02148;915.0639;;;;
2019/04/04 06:35:47;;;;;;;15.5;14;;;;;;;6.64;70.95508;914.9863;;;;
2019/04/04 06:38:12;;;;;;;16.1;14.4;;;;;;;7.04;69.23145;914.9487;;;;
2019/04/04 06:40:38;;;;;;;15.6;14;;;;;;;7.5;67.95703;914.9744;;;;
2019/04/04 06:43:03;;;;;;;15.9;14.3;;;;;;;7.57;66.98242;914.9437;;;;
2019/04/04 06:45:28;;;;;;;16.3;14.7;;;;;;;7.62;66.9209;914.9598;;;;
2019/04/04 06:47:53;;;;;;;15.1;13.6;;;;;;;8.14;65.00391;915.0619;;;;
2019/04/04 06:50:19;;;;;;;14.5;13.1;;;;;;;8.49;63.01172;914.8535;;;;
2019/04/04 06:52:44;;;;;;;14.7;13.2;;;;;;;8.63;63.04297;914.8746;;;;
2019/04/04 06:55:09;;;;;;;15.2;13.7;;;;;;;8.31;63.96191;914.9644;;;;
2019/04/04 06:57:34;;;;;;;15.3;13.8;;;;;;;8.23;63.67871;915.0499;;;;
2019/04/04 06:59:59;;;;;;;17.1;13.8;;;;;;;8.42;63.76172;915.0737;;;;
2019/04/04 07:02:25;;;;;;;14.4;13;;;;;;;8.44;63.78906;914.7878;;;;
2019/04/04 07:04:51;;;;;;;13.3;11.9;;;;;;;9.11;61.45117;914.7344;;;;
2019/04/04 07:07:17;;;;;;;13.7;12;;;;;;;9.02;61.17773;914.788;;;;
2019/04/04 07:09:42;;;;;;;13.1;11.8;;;;;;;9.61;60.31543;914.7048;;;;
2019/04/04 07:12:08;;;;;;;13;11.8;;;;;;;10.94;55.71289;914.7227;;;;
2019/04/04 07:14:33;;;;;;;13.9;12;;;;;;;10.81;55.9248;914.6117;;;;
2019/04/04 07:16:59;;;;;;;14.8;12.6;;;;;;;10.38;57.2959;914.7491;;;;
2019/04/04 07:19:38;;;;;;;14.3;11.5;;;;;;;10.35;56.91504;914.8079;;;;
2019/04/04 07:22:03;;;;;;;13.2;11.9;;;;;;;10.24;56.34082;914.8787;;;;
2019/04/04 07:24:28;;;;;;;12.6;11.3;;;;;;;10.85;54.90137;914.6702;;;;
2019/04/04 07:26:53;;;;;;;13;11.7;;;;;;;10.76;55.86133;914.5931;;;;
2019/04/04 07:29:22;;;;;;;13.1;11.8;;;;;;;10.14;57.06934;914.6788;;;;
2019/04/04 07:31:47;;;;;;;11.7;10.5;;;;;;;11.52;54.01465;914.6311;;;;
2019/04/04 07:34:16;;;;;;;12.4;11.2;;;;;;;12.12;51.28125;914.7964;;;;
2019/04/04 07:36:42;;;;;;;11.6;10.4;;;;;;;12.26;50.85156;914.7177;;;;
2019/04/04 07:39:07;;;;;;;12.5;11.3;;;;;;;11.95;51.85742;914.8705;;;;
2019/04/04 07:41:33;;;;;;;11.8;10.7;;;;;;;12.07;51.7793;914.6635;;;;
2019/04/04 07:43:58;;;;;;;10.3;9.3;;;;;;;13.58;47.99316;914.6379;;;;
2019/04/04 07:46:23;;;;;;;10.6;9.6;;;;;;;14.53;45.04297;914.8812;;;;
2019/04/04 07:48:51;;;;;;;10.7;9.6;;;;;;;14.01;45.17383;914.858;;;;
2019/04/04 07:51:14;;;;;;;9.9;9;;;;;;;15.26;41.93262;914.9266;;;;
2019/04/04 07:53:41;;;;;;;10.9;9.9;;;;;;;14.38;43.87598;914.9839;;;;
2019/04/04 07:56:06;;;;;;;10.7;9.7;;;;;;;13.48;46.39453;914.9387;;;;
2019/04/04 07:58:31;;;;;;;10.9;9.9;;;;;;;14.3;44.99707;914.8889;;;;
2019/04/04 08:01:00;;;;;;;10.1;9.1;;;;;;;15.65;41.52051;914.7953;;;;
2019/04/04 08:03:26;;;;;;;10.4;8.8;;;;;;;16.99;38.14648;914.7349;;;;
2019/04/04 08:05:52;;;;;;;10.4;8.7;;;;;;;16.5;39.76074;914.6733;;;;
2019/04/04 08:08:17;;;;;;;10.4;9.3;;;;;;;15.35;42.72656;914.8486;;;;
2019/04/04 08:10:42;;;;;;;10.4;9.2;;;;;;;15;42.72754;914.8959;;;;
2019/04/04 08:13:07;;;;;;;12.5;11;;;;;;;13.49;45.9707;915.1245;;;;
2019/04/04 08:15:32;;;;;;;12.8;11.5;;;;;;;11.82;50.47754;915.2466;;;;
2019/04/04 08:17:58;;;;;;;12.8;11.6;;;;;;;11.93;51.46484;915.1248;;;;
2019/04/04 08:20:23;;;;;;;11.1;10.1;;;;;;;14.12;46.12891;915.2139;;;;
2019/04/04 08:22:48;;;;;;;11.1;10;;;;;;;16.14;41.12695;915.101;;;;
2019/04/04 08:25:14;;;;;;;13.7;10.9;;;;;;;15.81;40.79492;915.1649;;;;
2019/04/04 08:27:40;;;;;;;11.4;10.2;;;;;;;16.16;40.37695;915.4031;;;;
2019/04/04 08:30:05;;;;;;;13;10.4;;;;;;;17.35;37.84277;915.4288;;;;
2019/04/04 08:32:30;;;;;;;13.6;10.7;;;;;;;16.71;39.7334;915.6187;;;;
2019/04/04 08:34:56;;;;;;;11.4;10.3;;;;;;;17.29;37.59277;915.58;;;;
2019/04/04 08:37:21;;;;;;;12.9;11.1;;;;;;;15.15;41.93359;915.4772;;;;
2019/04/04 08:39:46;;;;;;;13.2;11.8;;;;;;;15.57;41.79004;915.6624;;;;
2019/04/04 08:42:14;;;;;;;13.1;11.4;;;;;;;16.13;40.72168;915.6172;;;;
2019/04/04 08:44:42;;;;;;;13;11.7;;;;;;;16.2;40.3457;915.8546;;;;
2019/04/04 08:47:09;;;;;;;12.9;11.5;;;;;;;16.51;39.28613;916.0178;;;;
2019/04/04 08:49:34;;;;;;;12.6;11.4;;;;;;;16.03;40.42188;915.8468;;;;
2019/04/04 08:51:59;;;;;;;13.4;10.9;;;;;;;16.16;40.48145;915.9542;;;;
2019/04/04 08:54:26;;;;;;;16.9;11.5;;;;;;;15.87;40.81152;915.9608;;;;
2019/04/04 08:56:49;;;;;;;13.6;12.2;;;;;;;14.73;43.81934;915.7647;;;;
2019/04/04 08:59:15;;;;;;;14.8;13.3;;;;;;;14.1;47.47461;915.9754;;;;
2019/04/04 09:01:40;;;;;;;13.2;11.8;;;;;;;15.41;42.85938;916.1313;;;;
2019/04/04 09:04:05;;;;;;;14.5;13.1;;;;;;;14.8;44.89844;916.1146;;;;
2019/04/04 09:06:31;;;;;;;12.7;11.4;;;;;;;14.97;43.56641;916.235;;;;
2019/04/04 09:08:57;;;;;;;12.9;11.5;;;;;;;15.01;42.61328;916.2065;;;;
2019/04/04 09:11:34;;;;;;;12.5;11.2;;;;;;;14.78;43.89258;916.2244;;;;
2019/04/04 09:13:59;;;;;;;11.8;10.6;;;;;;;15.25;42.72852;916.0566;;;;
2019/04/04 09:16:26;;;;;;;11.5;10.4;;;;;;;14.23;44.44824;916.1884;;;;
2019/04/04 09:19:10;;;;;;;11.7;10.6;;;;;;;14.09;45.79199;916.1145;;;;
2019/04/04 09:21:35;;;;;;;12.8;10.9;;;;;;;14.03;45.60156;916.1606;;;;
2019/04/04 09:24:01;;;;;;;13;11.6;;;;;;;13.73;45.81152;916.3152;;;;
2019/04/04 09:26:26;;;;;;;14.8;12.5;;;;;;;12.39;49.27148;916.2622;;;;
2019/04/04 09:28:52;;;;;;;15.2;12.4;;;;;;;12.53;49.68848;916.3318;;;;
2019/04/04 09:31:17;;;;;;;13.3;12.1;;;;;;;12.81;49.57129;916.3825;;;;
2019/04/04 09:33:42;;;;;;;14.6;13;;;;;;;12.5;50.38477;916.2939;;;;
2019/04/04 09:36:07;;;;;;;15;12.9;;;;;;;12.66;50.13965;916.5658;;;;
2019/04/04 09:38:32;;;;;;;14.6;13.1;;;;;;;13.21;48.16992;916.5235;;;;
2019/04/04 09:40:57;;;;;;;14.3;12.8;;;;;;;14.14;45.87891;916.2683;;;;
2019/04/04 09:43:22;;;;;;;19.1;12.3;;;;;;;14.07;46.61914;916.296;;;;
2019/04/04 09:45:47;;;;;;;14.1;12.7;;;;;;;15.15;44.18457;916.1608;;;;
2019/04/04 09:48:14;;;;;;;13.7;12.3;;;;;;;14.61;45.31641;916.4615;;;;
2019/04/04 09:50:39;;;;;;;13.7;12.2;;;;;;;14.96;44.23535;916.385;;;;
2019/04/04 09:53:04;;;;;;;12.6;10.8;;;;;;;15.68;41.69629;916.5452;;;;
2019/04/04 09:55:35;;;;;;;12.1;10.9;;;;;;;15.86;42.20996;916.4705;;;;
2019/04/04 09:58:05;;;;;;;12.2;11.1;;;;;;;16.22;41.0293;916.31;;;;
2019/04/04 10:00:28;;;;;;;21;11.5;;;;;;;16.31;41.0957;916.3396;;;;
2019/04/04 10:02:54;;;;;;;13.2;11;;;;;;;14.76;45.10156;916.3805;;;;
2019/04/04 10:05:19;;;;;;;12.5;11.2;;;;;;;16.06;41.31641;916.3251;;;;
2019/04/04 10:07:50;;;;;;;14.5;11.3;;;;;;;16.88;39.38867;916.3812;;;;
2019/04/04 10:10:16;;;;;;;12.5;10.4;;;;;;;16.79;39.33496;916.2447;;;;
2019/04/04 10:12:41;;;;;;;11.3;10.2;;;;;;;17.34;38.72363;916.2486;;;;
2019/04/04 10:15:16;;;;;;;15.6;10.9;;;;;;;16.54;39.87988;916.2947;;;;
2019/04/04 10:17:41;;;;;;;11.5;10.3;;;;;;;16.28;39.79883;916.0001;;;;
2019/04/04 10:20:06;;;;;;;13.3;9.9;;;;;;;17.22;38.66602;916.1914;;;;
2019/04/04 10:22:33;;;;;;;30.3;10.8;;;;;;;16.46;39.81543;916.183;;;;
2019/04/04 10:25:00;;;;;;;11.6;10.1;;;;;;;16.59;38.57617;916.0511;;;;
2019/04/04 10:27:25;;;;;;;11.1;10;;;;;;;16.55;39.91602;915.9888;;;;
2019/04/04 10:29:50;;;;;;;11.3;10.2;;;;;;;16.49;39.71289;916.1408;;;;
2019/04/04 10:32:15;;;;;;;11.3;9.3;;;;;;;17.19;38.7793;916.2555;;;;
2019/04/04 10:34:40;;;;;;;10.1;9.1;;;;;;;17.75;38.46973;916.0002;;;;
2019/04/04 10:37:06;;;;;;;12.4;9.5;;;;;;;17.68;37.55762;915.9041;;;;
2019/04/04 10:39:31;;;;;;;10.1;9.1;;;;;;;19.01;35.12207;915.9919;;;;
2019/04/04 10:41:56;;;;;;;10.3;9.2;;;;;;;17.58;37.20117;915.9966;;;;
2019/04/04 10:44:21;;;;;;;13.6;9.5;;;;;;;18.04;37.18164;916.0239;;;;
2019/04/04 10:46:49;;;;;;;15.2;9.9;;;;;;;18.43;35.55176;915.7645;;;;
2019/04/04 10:49:15;;;;;;;10.6;9.5;;;;;;;18;36.71289;915.8287;;;;
2019/04/04 10:51:41;;;;;;;16.8;9.4;;;;;;;16.94;39.97461;915.8997;;;;
2019/04/04 10:54:22;;;;;;;21.7;9.1;;;;;;;17.74;36.40137;915.5428;;;;
2019/04/04 10:56:48;;;;;;;10.8;9.1;;;;;;;18.32;35.02051;915.7377;;;;
2019/04/04 10:59:13;;;;;;;11.6;9.3;;;;;;;18.61;35.03125;915.5631;;;;
2019/04/04 11:01:38;;;;;;;9.3;8.4;;;;;;;18.58;35.21484;915.6624;;;;
2019/04/04 11:04:03;;;;;;;10.6;8.6;;;;;;;18.52;35.59375;915.5433;;;;
2019/04/04 11:06:28;;;;;;;18.5;9.2;;;;;;;19.09;34.21973;915.5408;;;;
2019/04/04 11:08:53;;;;;;;10.5;9.1;;;;;;;19.01;34.86621;915.6564;;;;
2019/04/04 11:11:19;;;;;;;9.9;8.9;;;;;;;19.43;33.31348;915.5709;;;;
2019/04/04 11:13:44;;;;;;;31;9.9;;;;;;;19.68;32.95996;915.2413;;;;
2019/04/04 11:16:09;;;;;;;13;9.2;;;;;;;18.92;34.28809;915.3282;;;;
2019/04/04 11:18:34;;;;;;;10.5;9.4;;;;;;;19.08;34.30078;915.6105;;;;
2019/04/04 11:20:59;;;;;;;11;8.4;;;;;;;20.16;32.2373;915.5304;;;;
2019/04/04 11:23:24;;;;;;;10.6;8.3;;;;;;;20.93;30.5625;915.418;;;;
2019/04/04 11:25:51;;;;;;;10.9;8.8;;;;;;;21.78;29.30957;915.2961;;;;
2019/04/04 11:28:17;;;;;;;10;8.1;;;;;;;21.54;29.75;915.3465;;;;
2019/04/04 11:30:42;;;;;;;13.1;8.8;;;;;;;19.46;32.6748;915.4973;;;;
2019/04/04 11:33:07;;;;;;;10.1;8.5;;;;;;;19.32;33.46875;915.5626;;;;
2019/04/04 11:35:44;;;;;;;9.8;8.3;;;;;;;20.08;31.75293;915.4244;;;;
2019/04/04 11:38:10;;;;;;;10.5;8.6;;;;;;;20.11;32.61914;915.3455;;;;
2019/04/04 11:40:35;;;;;;;8.7;7.9;;;;;;;21.41;30.23242;915.3611;;;;
2019/04/04 11:43:02;;;;;;;9;8.1;;;;;;;21.17;30.27539;915.2594;;;;
2019/04/04 11:45:27;;;;;;;10.9;8;;;;;;;22.29;29.20215;915.2726;;;;
2019/04/04 11:47:52;;;;;;;9.7;7.9;;;;;;;21.47;29.58203;915.4065;;;;
2019/04/04 11:50:18;;;;;;;10.1;8.1;;;;;;;22;29.14746;915.4439;;;;
2019/04/04 11:52:43;;;;;;;10;8.1;;;;;;;21.2;30.21875;915.1298;;;;
2019/04/04 11:55:08;;;;;;;12;8;;;;;;;21.88;29.41016;915.1453;;;;
2019/04/04 11:57:33;;;;;;;13.6;8.3;;;;;;;19.39;33.4502;915.3368;;;;
2019/04/04 11:59:58;;;;;;;11.6;8.4;;;;;;;20.28;31.89551;915.4375;;;;
2019/04/04 12:02:24;;;;;;;13;8.4;;;;;;;20.15;32.00293;915.33;;;;
2019/04/04 12:04:48;;;;;;;9.2;8.2;;;;;;;21.16;30.48535;915.3566;;;;
2019/04/04 12:07:13;;;;;;;13.5;8.8;;;;;;;19.88;31.87793;915.3025;;;;
2019/04/04 12:09:39;;;;;;;9.9;8.9;;;;;;;19.51;33.47168;915.389;;;;
2019/04/04 12:12:04;;;;;;;10.8;9;;;;;;;19.57;33.19629;915.3158;;;;
2019/04/04 12:14:29;;;;;;;11.6;8.9;;;;;;;20.56;31.57715;915.1492;;;;
2019/04/04 12:16:54;;;;;;;32.8;9.9;;;;;;;19.94;33.22363;915.0428;;;;
2019/04/04 12:19:19;;;;;;;10.5;9;;;;;;;19.08;34.04395;915.16;;;;
2019/04/04 12:21:44;;;;;;;16.7;9.1;;;;;;;17.57;37.21191;915.3295;;;;
2019/04/04 12:24:10;;;;;;;10.1;8.8;;;;;;;17.65;37.09082;915.2391;;;;
2019/04/04 12:26:36;;;;;;;14.1;8.9;;;;;;;19.26;34.38477;915.2888;;;;
2019/04/04 12:29:01;;;;;;;14.4;9;;;;;;;19.09;35.29102;915.3563;;;;
2019/04/04 12:31:27;;;;;;;16.6;9.5;;;;;;;18.02;36.61133;915.3998;;;;
2019/04/04 12:33:52;;;;;;;10.2;9.1;;;;;;;18.33;35.64941;915.4568;;;;
2019/04/04 12:36:17;;;;;;;14;8.9;;;;;;;17.44;37.30469;915.2897;;;;
2019/04/04 12:38:43;;;;;;;13.1;8.8;;;;;;;17.39;37.93848;915.6493;;;;
2019/04/04 12:41:09;;;;;;;12.8;9.3;;;;;;;17.89;37.66797;915.4813;;;;
2019/04/04 12:43:35;;;;;;;21.1;10;;;;;;;17.05;38.37305;915.6646;;;;
2019/04/04 12:46:00;;;;;;;14.7;9.7;;;;;;;16.47;41.13477;915.8386;;;;
2019/04/04 12:48:26;;;;;;;25.2;9.9;;;;;;;15.28;43.25098;915.9148;;;;
2019/04/04 12:50:51;;;;;;;14.7;10.2;;;;;;;15.5;42.8916;915.8445;;;;
2019/04/04 12:53:16;;;;;;;11.2;10.1;;;;;;;14.77;43.97266;915.9731;;;;
2019/04/04 12:55:41;;;;;;;17;10.8;;;;;;;14.51;44.87988;915.9558;;;;
2019/04/04 12:58:09;;;;;;;11.8;10.5;;;;;;;14.24;46.44141;916.0377;;;;
2019/04/04 13:00:32;;;;;;;17.1;11;;;;;;;13.44;48.35645;916.3806;;;;
2019/04/04 13:02:56;;;;;;;12.5;10.5;;;;;;;13.33;48.59766;916.4387;;;;
2019/04/04 13:05:21;;;;;;;16.5;11.2;;;;;;;12.91;50.03223;916.3984;;;;
2019/04/04 13:07:46;;;;;;;14.5;10.9;;;;;;;12.73;50.40039;916.3853;;;;
2019/04/04 13:10:12;;;;;;;16;10.7;;;;;;;12.95;50.54102;916.5003;;;;
2019/04/04 13:12:37;;;;;;;15.2;11.2;;;;;;;12.86;50.03711;916.5464;;;;
2019/04/04 13:15:02;;;;;;;12.9;10.4;;;;;;;12.87;49.5791;916.5581;;;;
2019/04/04 13:17:27;;;;;;;14.4;11;;;;;;;13.68;48.02637;916.6248;;;;
2019/04/04 13:19:52;;;;;;;11.8;9.8;;;;;;;15.7;42.57715;916.6958;;;;
2019/04/04 13:22:17;;;;;;;12.4;8.9;;;;;;;15.74;41.77051;916.7375;;;;
2019/04/04 13:24:43;;;;;;;11.9;9.3;;;;;;;15.88;42.25879;916.6826;;;;
2019/04/04 13:27:08;;;;;;;11.2;9.4;;;;;;;15.88;41.85352;916.6904;;;;
2019/04/04 13:29:35;;;;;;;11.6;9.1;;;;;;;16.07;41.57129;916.7645;;;;
2019/04/04 13:31:58;;;;;;;11.2;9.6;;;;;;;14.91;42.77637;916.8672;;;;
2019/04/04 13:34:23;;;;;;;10.5;9.4;;;;;;;14.57;44.31055;916.9412;;;;
2019/04/04 13:36:48;;;;;;;10.3;9.3;;;;;;;15.33;42.79492;916.8908;;;;
2019/04/04 13:39:13;;;;;;;10.2;9.2;;;;;;;14.72;43.28809;917.1936;;;;
2019/04/04 13:41:38;;;;;;;10.8;9.8;;;;;;;14.43;43.92773;917.2609;;;;
2019/04/04 13:44:03;;;;;;;11.2;9.6;;;;;;;13.2;47.22754;917.3134;;;;
2019/04/04 13:46:28;;;;;;;12.1;9.7;;;;;;;13.17;47.68262;917.3773;;;;
2019/04/04 13:48:54;;;;;;;11.4;10.2;;;;;;;12.85;48.71582;917.4803;;;;
2019/04/04 13:51:19;;;;;;;11.8;10.5;;;;;;;12.62;48.79297;917.4269;;;;
2019/04/04 13:53:44;;;;;;;11.2;10;;;;;;;12.73;50.44629;917.3867;;;;
2019/04/04 13:56:09;;;;;;;13.2;10.6;;;;;;;12.16;51.49219;917.6208;;;;
2019/04/04 13:58:34;;;;;;;15;10.9;;;;;;;11.38;52.91992;917.6462;;;;
2019/04/04 14:00:59;;;;;;;13.7;10.9;;;;;;;11.39;54.35254;917.6021;;;;
2019/04/04 14:03:24;;;;;;;14.7;11.1;;;;;;;11.02;54.80859;917.8036;;;;
2019/04/04 14:05:49;;;;;;;13.4;11.3;;;;;;;10.96;55.4873;918.0867;;;;
2019/04/04 14:08:15;;;;;;;13.1;11.4;;;;;;;11.12;54.2959;917.9348;;;;
2019/04/04 14:10:40;;;;;;;14.8;10.8;;;;;;;10.48;54.79688;918.1516;;;;